sensor_id;sensor_type;location;lat;lon;timestamp;temperature;humidity
5164;DHT22;2601;50.224;10.126;2023-05-07T00:00:36;17.50;95.90
5164;DHT22;2601;50.224;10.126;2023-05-07T00:03:02;17.60;95.90
5164;DHT22;2601;50.224;10.126;2023-05-07T00:05:28;17.60;95.90
5164;DHT22;2601;50.224;10.126;2023-05-07T00:07:53;17.60;95.90
5164;DHT22;2601;50.224;10.126;2023-05-07T00:10:19;17.50;95.90
5164;DHT22;2601;50.224;10.126;2023-05-07T00:12:45;17.60;95.90
5164;DHT22;2601;50.224;10.126;2023-05-07T00:15:11;17.60;95.90
5164;DHT22;2601;50.224;10.126;2023-05-07T00:17:36;17.60;95.90
5164;DHT22;2601;50.224;10.126;2023-05-07T00:20:03;17.60;95.90
5164;DHT22;2601;50.224;10.126;2023-05-07T00:22:29;17.60;95.90
5164;DHT22;2601;50.224;10.126;2023-05-07T00:24:55;17.60;95.90
5164;DHT22;2601;50.224;10.126;2023-05-07T00:27:21;17.60;95.90
5164;DHT22;2601;50.224;10.126;2023-05-07T00:29:47;17.60;95.90
5164;DHT22;2601;50.224;10.126;2023-05-07T00:32:12;17.60;95.90
5164;DHT22;2601;50.224;10.126;2023-05-07T00:34:38;17.60;95.90
5164;DHT22;2601;50.224;10.126;2023-05-07T00:37:05;17.60;95.90
5164;DHT22;2601;50.224;10.126;2023-05-07T00:39:33;17.60;95.90
5164;DHT22;2601;50.224;10.126;2023-05-07T00:41:58;17.60;95.90
5164;DHT22;2601;50.224;10.126;2023-05-07T00:44:24;17.60;95.90
5164;DHT22;2601;50.224;10.126;2023-05-07T00:46:50;17.60;95.90
5164;DHT22;2601;50.224;10.126;2023-05-07T00:49:16;17.60;95.90
5164;DHT22;2601;50.224;10.126;2023-05-07T00:51:42;17.60;96.00
5164;DHT22;2601;50.224;10.126;2023-05-07T00:54:08;17.60;95.90
5164;DHT22;2601;50.224;10.126;2023-05-07T00:56:34;17.60;95.90
5164;DHT22;2601;50.224;10.126;2023-05-07T00:59:01;17.50;95.90
5164;DHT22;2601;50.224;10.126;2023-05-07T01:01:27;17.60;95.90
5164;DHT22;2601;50.224;10.126;2023-05-07T01:03:53;17.60;95.90
5164;DHT22;2601;50.224;10.126;2023-05-07T01:06:20;17.60;95.90
5164;DHT22;2601;50.224;10.126;2023-05-07T01:08:47;17.60;95.90
5164;DHT22;2601;50.224;10.126;2023-05-07T01:11:14;17.60;96.00
5164;DHT22;2601;50.224;10.126;2023-05-07T01:13:40;17.60;96.00
5164;DHT22;2601;50.224;10.126;2023-05-07T01:16:07;17.60;96.00
5164;DHT22;2601;50.224;10.126;2023-05-07T01:18:33;17.60;96.00
5164;DHT22;2601;50.224;10.126;2023-05-07T01:21:01;17.50;95.90
5164;DHT22;2601;50.224;10.126;2023-05-07T01:23:29;17.60;96.00
5164;DHT22;2601;50.224;10.126;2023-05-07T01:25:56;17.60;96.00
5164;DHT22;2601;50.224;10.126;2023-05-07T01:28:21;17.60;96.00
5164;DHT22;2601;50.224;10.126;2023-05-07T01:30:51;17.50;96.00
5164;DHT22;2601;50.224;10.126;2023-05-07T01:33:20;17.60;96.10
5164;DHT22;2601;50.224;10.126;2023-05-07T01:35:49;17.60;96.10
5164;DHT22;2601;50.224;10.126;2023-05-07T01:38:16;17.60;96.10
5164;DHT22;2601;50.224;10.126;2023-05-07T01:40:41;17.60;96.10
5164;DHT22;2601;50.224;10.126;2023-05-07T01:43:08;17.60;96.10
5164;DHT22;2601;50.224;10.126;2023-05-07T01:45:34;17.60;96.10
5164;DHT22;2601;50.224;10.126;2023-05-07T01:48:01;17.60;96.10
5164;DHT22;2601;50.224;10.126;2023-05-07T01:50:27;17.60;96.10
5164;DHT22;2601;50.224;10.126;2023-05-07T01:52:53;17.50;96.00
5164;DHT22;2601;50.224;10.126;2023-05-07T01:55:18;17.60;96.10
5164;DHT22;2601;50.224;10.126;2023-05-07T01:57:44;17.60;96.10
5164;DHT22;2601;50.224;10.126;2023-05-07T02:00:10;17.60;96.10
5164;DHT22;2601;50.224;10.126;2023-05-07T02:02:36;17.60;96.10
5164;DHT22;2601;50.224;10.126;2023-05-07T02:05:01;17.60;96.10
5164;DHT22;2601;50.224;10.126;2023-05-07T02:07:27;17.60;96.10
5164;DHT22;2601;50.224;10.126;2023-05-07T02:09:53;17.60;96.20
5164;DHT22;2601;50.224;10.126;2023-05-07T02:12:20;17.60;96.20
5164;DHT22;2601;50.224;10.126;2023-05-07T02:14:46;17.60;96.10
5164;DHT22;2601;50.224;10.126;2023-05-07T02:17:11;17.60;96.40
5164;DHT22;2601;50.224;10.126;2023-05-07T02:19:37;17.50;96.10
5164;DHT22;2601;50.224;10.126;2023-05-07T02:22:03;17.50;96.10
5164;DHT22;2601;50.224;10.126;2023-05-07T02:24:28;17.50;96.10
5164;DHT22;2601;50.224;10.126;2023-05-07T02:26:54;17.60;96.20
5164;DHT22;2601;50.224;10.126;2023-05-07T02:29:19;17.60;96.20
5164;DHT22;2601;50.224;10.126;2023-05-07T02:31:45;17.60;96.20
5164;DHT22;2601;50.224;10.126;2023-05-07T02:34:10;17.60;96.20
5164;DHT22;2601;50.224;10.126;2023-05-07T02:36:36;17.60;96.20
5164;DHT22;2601;50.224;10.126;2023-05-07T02:39:02;17.60;96.20
5164;DHT22;2601;50.224;10.126;2023-05-07T02:41:28;17.60;96.10
5164;DHT22;2601;50.224;10.126;2023-05-07T02:43:53;17.50;96.10
5164;DHT22;2601;50.224;10.126;2023-05-07T02:46:19;17.60;96.20
5164;DHT22;2601;50.224;10.126;2023-05-07T02:48:44;17.60;96.20
5164;DHT22;2601;50.224;10.126;2023-05-07T02:51:10;17.60;96.20
5164;DHT22;2601;50.224;10.126;2023-05-07T02:53:35;17.60;96.20
5164;DHT22;2601;50.224;10.126;2023-05-07T02:56:01;17.50;96.10
5164;DHT22;2601;50.224;10.126;2023-05-07T02:58:27;17.60;96.20
5164;DHT22;2601;50.224;10.126;2023-05-07T03:00:53;17.60;96.20
5164;DHT22;2601;50.224;10.126;2023-05-07T03:03:20;17.50;96.40
5164;DHT22;2601;50.224;10.126;2023-05-07T03:05:45;17.50;96.10
5164;DHT22;2601;50.224;10.126;2023-05-07T03:08:11;17.50;96.10
5164;DHT22;2601;50.224;10.126;2023-05-07T03:10:37;17.60;96.10
5164;DHT22;2601;50.224;10.126;2023-05-07T03:13:03;17.60;96.10
5164;DHT22;2601;50.224;10.126;2023-05-07T03:15:28;17.50;96.10
5164;DHT22;2601;50.224;10.126;2023-05-07T03:17:54;17.50;96.10
5164;DHT22;2601;50.224;10.126;2023-05-07T03:20:19;17.50;96.00
5164;DHT22;2601;50.224;10.126;2023-05-07T03:22:45;17.50;96.00
5164;DHT22;2601;50.224;10.126;2023-05-07T03:25:11;17.50;96.00
5164;DHT22;2601;50.224;10.126;2023-05-07T03:27:36;17.50;96.10
5164;DHT22;2601;50.224;10.126;2023-05-07T03:30:03;17.50;96.00
5164;DHT22;2601;50.224;10.126;2023-05-07T03:32:28;17.50;96.00
5164;DHT22;2601;50.224;10.126;2023-05-07T03:34:54;17.50;96.00
5164;DHT22;2601;50.224;10.126;2023-05-07T03:37:21;17.50;96.00
5164;DHT22;2601;50.224;10.126;2023-05-07T03:39:47;17.50;96.00
5164;DHT22;2601;50.224;10.126;2023-05-07T03:42:12;17.50;96.10
5164;DHT22;2601;50.224;10.126;2023-05-07T03:44:38;17.50;96.00
5164;DHT22;2601;50.224;10.126;2023-05-07T03:47:04;17.50;96.00
5164;DHT22;2601;50.224;10.126;2023-05-07T03:49:29;17.50;96.10
5164;DHT22;2601;50.224;10.126;2023-05-07T03:51:55;17.50;96.00
5164;DHT22;2601;50.224;10.126;2023-05-07T03:54:21;17.50;96.00
5164;DHT22;2601;50.224;10.126;2023-05-07T03:56:46;17.50;96.00
5164;DHT22;2601;50.224;10.126;2023-05-07T03:59:15;17.50;96.00
5164;DHT22;2601;50.224;10.126;2023-05-07T04:01:40;17.50;96.00
5164;DHT22;2601;50.224;10.126;2023-05-07T04:04:06;17.50;96.00
5164;DHT22;2601;50.224;10.126;2023-05-07T04:06:31;17.50;96.00
5164;DHT22;2601;50.224;10.126;2023-05-07T04:08:57;17.50;96.00
5164;DHT22;2601;50.224;10.126;2023-05-07T04:11:23;17.50;96.00
5164;DHT22;2601;50.224;10.126;2023-05-07T04:13:48;17.50;96.10
5164;DHT22;2601;50.224;10.126;2023-05-07T04:16:14;17.50;96.00
5164;DHT22;2601;50.224;10.126;2023-05-07T04:18:40;17.50;96.00
5164;DHT22;2601;50.224;10.126;2023-05-07T04:21:06;17.50;96.00
5164;DHT22;2601;50.224;10.126;2023-05-07T04:23:38;17.50;96.00
5164;DHT22;2601;50.224;10.126;2023-05-07T04:26:04;17.50;96.00
5164;DHT22;2601;50.224;10.126;2023-05-07T04:28:29;17.50;96.00
5164;DHT22;2601;50.224;10.126;2023-05-07T04:30:55;17.50;96.00
5164;DHT22;2601;50.224;10.126;2023-05-07T04:33:21;17.50;96.00
5164;DHT22;2601;50.224;10.126;2023-05-07T04:35:46;17.50;96.00
5164;DHT22;2601;50.224;10.126;2023-05-07T04:38:12;17.50;96.00
5164;DHT22;2601;50.224;10.126;2023-05-07T04:40:37;17.50;96.00
5164;DHT22;2601;50.224;10.126;2023-05-07T04:43:04;17.50;96.00
5164;DHT22;2601;50.224;10.126;2023-05-07T04:45:29;17.50;96.00
5164;DHT22;2601;50.224;10.126;2023-05-07T04:47:55;17.50;96.00
5164;DHT22;2601;50.224;10.126;2023-05-07T04:50:20;17.50;96.00
5164;DHT22;2601;50.224;10.126;2023-05-07T04:52:48;17.50;96.00
5164;DHT22;2601;50.224;10.126;2023-05-07T04:55:14;17.50;96.00
5164;DHT22;2601;50.224;10.126;2023-05-07T04:57:40;17.50;96.00
5164;DHT22;2601;50.224;10.126;2023-05-07T05:00:07;17.50;96.00
5164;DHT22;2601;50.224;10.126;2023-05-07T05:02:34;17.50;96.00
5164;DHT22;2601;50.224;10.126;2023-05-07T05:05:00;17.50;96.00
5164;DHT22;2601;50.224;10.126;2023-05-07T05:07:27;17.50;96.00
5164;DHT22;2601;50.224;10.126;2023-05-07T05:09:53;17.50;96.00
5164;DHT22;2601;50.224;10.126;2023-05-07T05:12:19;17.50;96.00
5164;DHT22;2601;50.224;10.126;2023-05-07T05:14:44;17.50;96.00
5164;DHT22;2601;50.224;10.126;2023-05-07T05:17:10;17.50;96.00
5164;DHT22;2601;50.224;10.126;2023-05-07T05:19:36;17.50;96.00
5164;DHT22;2601;50.224;10.126;2023-05-07T05:22:01;17.50;96.00
5164;DHT22;2601;50.224;10.126;2023-05-07T05:24:29;17.50;96.00
5164;DHT22;2601;50.224;10.126;2023-05-07T05:26:55;17.50;96.10
5164;DHT22;2601;50.224;10.126;2023-05-07T05:29:21;17.50;96.10
5164;DHT22;2601;50.224;10.126;2023-05-07T05:31:46;17.50;96.10
5164;DHT22;2601;50.224;10.126;2023-05-07T05:34:12;17.50;96.10
5164;DHT22;2601;50.224;10.126;2023-05-07T05:36:37;17.50;96.10
5164;DHT22;2601;50.224;10.126;2023-05-07T05:39:04;17.50;96.10
5164;DHT22;2601;50.224;10.126;2023-05-07T05:41:29;17.50;96.10
5164;DHT22;2601;50.224;10.126;2023-05-07T05:43:55;17.50;96.20
5164;DHT22;2601;50.224;10.126;2023-05-07T05:46:21;17.50;96.50
5164;DHT22;2601;50.224;10.126;2023-05-07T05:48:47;17.50;96.30
5164;DHT22;2601;50.224;10.126;2023-05-07T05:51:12;17.50;96.30
5164;DHT22;2601;50.224;10.126;2023-05-07T05:53:38;17.50;96.30
5164;DHT22;2601;50.224;10.126;2023-05-07T05:56:04;17.50;96.30
5164;DHT22;2601;50.224;10.126;2023-05-07T05:58:30;17.50;96.30
5164;DHT22;2601;50.224;10.126;2023-05-07T06:00:55;17.50;96.30
5164;DHT22;2601;50.224;10.126;2023-05-07T06:03:21;17.50;96.30
5164;DHT22;2601;50.224;10.126;2023-05-07T06:05:47;17.50;96.30
5164;DHT22;2601;50.224;10.126;2023-05-07T06:08:13;17.50;96.30
5164;DHT22;2601;50.224;10.126;2023-05-07T06:10:39;17.50;96.30
5164;DHT22;2601;50.224;10.126;2023-05-07T06:13:05;17.50;96.30
5164;DHT22;2601;50.224;10.126;2023-05-07T06:15:31;17.50;96.30
5164;DHT22;2601;50.224;10.126;2023-05-07T06:17:56;17.50;96.30
5164;DHT22;2601;50.224;10.126;2023-05-07T06:20:23;17.50;96.40
5164;DHT22;2601;50.224;10.126;2023-05-07T06:22:48;17.50;96.30
5164;DHT22;2601;50.224;10.126;2023-05-07T06:25:14;17.50;96.30
5164;DHT22;2601;50.224;10.126;2023-05-07T06:27:40;17.50;96.30
5164;DHT22;2601;50.224;10.126;2023-05-07T06:30:06;17.50;96.40
5164;DHT22;2601;50.224;10.126;2023-05-07T06:32:32;17.50;96.30
5164;DHT22;2601;50.224;10.126;2023-05-07T06:34:57;17.50;96.40
5164;DHT22;2601;50.224;10.126;2023-05-07T06:37:23;17.50;96.30
5164;DHT22;2601;50.224;10.126;2023-05-07T06:39:49;17.60;96.40
5164;DHT22;2601;50.224;10.126;2023-05-07T06:42:14;17.50;96.40
5164;DHT22;2601;50.224;10.126;2023-05-07T06:44:40;17.50;96.40
5164;DHT22;2601;50.224;10.126;2023-05-07T06:47:06;17.60;96.40
5164;DHT22;2601;50.224;10.126;2023-05-07T06:49:31;17.50;96.40
5164;DHT22;2601;50.224;10.126;2023-05-07T06:51:57;17.50;96.30
5164;DHT22;2601;50.224;10.126;2023-05-07T06:54:23;17.50;96.30
5164;DHT22;2601;50.224;10.126;2023-05-07T06:56:49;17.60;96.40
5164;DHT22;2601;50.224;10.126;2023-05-07T06:59:15;17.60;96.40
5164;DHT22;2601;50.224;10.126;2023-05-07T07:01:40;17.50;96.30
5164;DHT22;2601;50.224;10.126;2023-05-07T07:04:06;17.60;96.30
5164;DHT22;2601;50.224;10.126;2023-05-07T07:06:32;17.50;96.30
5164;DHT22;2601;50.224;10.126;2023-05-07T07:08:58;17.60;96.40
5164;DHT22;2601;50.224;10.126;2023-05-07T07:11:24;17.60;96.30
5164;DHT22;2601;50.224;10.126;2023-05-07T07:13:50;17.50;96.30
5164;DHT22;2601;50.224;10.126;2023-05-07T07:16:16;17.60;96.30
5164;DHT22;2601;50.224;10.126;2023-05-07T07:18:42;17.50;96.30
5164;DHT22;2601;50.224;10.126;2023-05-07T07:21:08;17.60;96.30
5164;DHT22;2601;50.224;10.126;2023-05-07T07:23:35;17.60;96.40
5164;DHT22;2601;50.224;10.126;2023-05-07T07:26:00;17.50;96.30
5164;DHT22;2601;50.224;10.126;2023-05-07T07:28:26;17.60;96.40
5164;DHT22;2601;50.224;10.126;2023-05-07T07:30:51;17.60;96.30
5164;DHT22;2601;50.224;10.126;2023-05-07T07:33:17;17.60;96.40
5164;DHT22;2601;50.224;10.126;2023-05-07T07:35:43;17.50;96.30
5164;DHT22;2601;50.224;10.126;2023-05-07T07:38:08;17.60;96.40
5164;DHT22;2601;50.224;10.126;2023-05-07T07:40:37;17.60;96.40
5164;DHT22;2601;50.224;10.126;2023-05-07T07:43:02;17.60;96.40
5164;DHT22;2601;50.224;10.126;2023-05-07T07:45:28;17.60;96.30
5164;DHT22;2601;50.224;10.126;2023-05-07T07:47:54;17.60;96.40
5164;DHT22;2601;50.224;10.126;2023-05-07T07:50:20;17.50;96.30
5164;DHT22;2601;50.224;10.126;2023-05-07T07:52:45;17.50;96.30
5164;DHT22;2601;50.224;10.126;2023-05-07T07:55:11;17.60;96.30
5164;DHT22;2601;50.224;10.126;2023-05-07T07:57:37;17.50;96.30
5164;DHT22;2601;50.224;10.126;2023-05-07T08:00:03;17.60;96.60
5164;DHT22;2601;50.224;10.126;2023-05-07T08:02:29;17.60;96.30
5164;DHT22;2601;50.224;10.126;2023-05-07T08:04:55;17.60;96.30
5164;DHT22;2601;50.224;10.126;2023-05-07T08:07:20;17.60;96.40
5164;DHT22;2601;50.224;10.126;2023-05-07T08:09:48;17.60;96.30
5164;DHT22;2601;50.224;10.126;2023-05-07T08:12:14;17.60;96.40
5164;DHT22;2601;50.224;10.126;2023-05-07T08:14:40;17.60;96.30
5164;DHT22;2601;50.224;10.126;2023-05-07T08:17:06;17.60;96.30
5164;DHT22;2601;50.224;10.126;2023-05-07T08:19:32;17.60;96.30
5164;DHT22;2601;50.224;10.126;2023-05-07T08:21:57;17.50;96.30
5164;DHT22;2601;50.224;10.126;2023-05-07T08:24:23;17.60;96.30
5164;DHT22;2601;50.224;10.126;2023-05-07T08:26:49;17.50;96.30
5164;DHT22;2601;50.224;10.126;2023-05-07T08:29:15;17.50;96.30
5164;DHT22;2601;50.224;10.126;2023-05-07T08:31:41;17.60;96.30
5164;DHT22;2601;50.224;10.126;2023-05-07T08:34:06;17.60;96.30
5164;DHT22;2601;50.224;10.126;2023-05-07T08:36:32;17.50;96.30
5164;DHT22;2601;50.224;10.126;2023-05-07T08:38:58;17.60;96.30
5164;DHT22;2601;50.224;10.126;2023-05-07T08:41:24;17.60;96.30
5164;DHT22;2601;50.224;10.126;2023-05-07T08:43:50;17.60;96.20
5164;DHT22;2601;50.224;10.126;2023-05-07T08:46:18;17.50;96.30
5164;DHT22;2601;50.224;10.126;2023-05-07T08:48:45;17.50;96.30
5164;DHT22;2601;50.224;10.126;2023-05-07T08:51:17;17.60;96.40
5164;DHT22;2601;50.224;10.126;2023-05-07T08:53:43;17.60;96.30
5164;DHT22;2601;50.224;10.126;2023-05-07T08:56:09;17.60;96.30
5164;DHT22;2601;50.224;10.126;2023-05-07T08:58:35;17.60;96.30
5164;DHT22;2601;50.224;10.126;2023-05-07T09:01:05;17.60;96.30
5164;DHT22;2601;50.224;10.126;2023-05-07T09:03:32;17.60;96.30
5164;DHT22;2601;50.224;10.126;2023-05-07T09:06:00;17.60;96.40
5164;DHT22;2601;50.224;10.126;2023-05-07T09:08:27;17.60;96.40
5164;DHT22;2601;50.224;10.126;2023-05-07T09:10:53;17.60;96.30
5164;DHT22;2601;50.224;10.126;2023-05-07T09:13:19;17.60;96.30
5164;DHT22;2601;50.224;10.126;2023-05-07T09:15:45;17.60;96.30
5164;DHT22;2601;50.224;10.126;2023-05-07T09:18:11;17.60;96.30
5164;DHT22;2601;50.224;10.126;2023-05-07T09:20:37;17.60;96.30
5164;DHT22;2601;50.224;10.126;2023-05-07T09:23:03;17.60;96.30
5164;DHT22;2601;50.224;10.126;2023-05-07T09:25:30;17.60;96.20
5164;DHT22;2601;50.224;10.126;2023-05-07T09:27:56;17.60;96.10
5164;DHT22;2601;50.224;10.126;2023-05-07T09:30:22;17.60;96.10
5164;DHT22;2601;50.224;10.126;2023-05-07T09:32:47;17.70;96.20
5164;DHT22;2601;50.224;10.126;2023-05-07T09:35:17;17.70;96.20
5164;DHT22;2601;50.224;10.126;2023-05-07T09:37:43;17.70;96.30
5164;DHT22;2601;50.224;10.126;2023-05-07T09:40:20;17.70;96.30
5164;DHT22;2601;50.224;10.126;2023-05-07T09:42:46;17.70;96.40
5164;DHT22;2601;50.224;10.126;2023-05-07T09:45:12;17.70;96.40
5164;DHT22;2601;50.224;10.126;2023-05-07T09:47:39;17.70;96.30
5164;DHT22;2601;50.224;10.126;2023-05-07T09:50:10;17.70;96.30
5164;DHT22;2601;50.224;10.126;2023-05-07T09:52:39;17.70;96.40
5164;DHT22;2601;50.224;10.126;2023-05-07T09:55:06;17.70;96.30
5164;DHT22;2601;50.224;10.126;2023-05-07T09:57:33;17.70;96.40
5164;DHT22;2601;50.224;10.126;2023-05-07T09:59:59;17.70;96.40
5164;DHT22;2601;50.224;10.126;2023-05-07T10:02:30;17.70;96.30
5164;DHT22;2601;50.224;10.126;2023-05-07T10:04:56;17.70;96.30
5164;DHT22;2601;50.224;10.126;2023-05-07T10:07:24;17.70;96.10
5164;DHT22;2601;50.224;10.126;2023-05-07T10:09:50;17.70;96.10
5164;DHT22;2601;50.224;10.126;2023-05-07T10:12:17;17.70;96.00
5164;DHT22;2601;50.224;10.126;2023-05-07T10:14:44;17.70;95.90
5164;DHT22;2601;50.224;10.126;2023-05-07T10:17:11;17.70;96.00
5164;DHT22;2601;50.224;10.126;2023-05-07T10:19:37;17.70;95.90
5164;DHT22;2601;50.224;10.126;2023-05-07T10:22:05;17.70;95.90
5164;DHT22;2601;50.224;10.126;2023-05-07T10:24:35;17.70;95.80
5164;DHT22;2601;50.224;10.126;2023-05-07T10:27:05;17.70;95.80
5164;DHT22;2601;50.224;10.126;2023-05-07T10:32:35;17.70;95.80
5164;DHT22;2601;50.224;10.126;2023-05-07T10:35:04;17.70;95.80
5164;DHT22;2601;50.224;10.126;2023-05-07T10:37:32;17.70;95.80
5164;DHT22;2601;50.224;10.126;2023-05-07T10:39:58;17.70;95.80
5164;DHT22;2601;50.224;10.126;2023-05-07T10:42:24;17.70;95.80
5164;DHT22;2601;50.224;10.126;2023-05-07T10:44:49;17.70;95.80
5164;DHT22;2601;50.224;10.126;2023-05-07T10:47:16;17.70;95.80
5164;DHT22;2601;50.224;10.126;2023-05-07T10:54:39;17.70;95.80
5164;DHT22;2601;50.224;10.126;2023-05-07T10:57:35;17.70;95.70
5164;DHT22;2601;50.224;10.126;2023-05-07T11:05:25;17.70;95.90
5164;DHT22;2601;50.224;10.126;2023-05-07T11:07:58;17.70;95.90
5164;DHT22;2601;50.224;10.126;2023-05-07T11:10:51;17.70;95.80
5164;DHT22;2601;50.224;10.126;2023-05-07T11:13:17;17.70;95.90
5164;DHT22;2601;50.224;10.126;2023-05-07T11:15:47;17.70;96.00
5164;DHT22;2601;50.224;10.126;2023-05-07T11:18:17;17.70;95.90
5164;DHT22;2601;50.224;10.126;2023-05-07T11:26:10;17.70;95.90
5164;DHT22;2601;50.224;10.126;2023-05-07T11:28:43;17.70;96.00
5164;DHT22;2601;50.224;10.126;2023-05-07T11:31:10;17.70;96.00
5164;DHT22;2601;50.224;10.126;2023-05-07T11:33:37;17.70;96.10
5164;DHT22;2601;50.224;10.126;2023-05-07T11:36:03;17.70;96.00
5164;DHT22;2601;50.224;10.126;2023-05-07T11:38:30;17.70;96.30
5164;DHT22;2601;50.224;10.126;2023-05-07T11:40:57;17.70;96.10
5164;DHT22;2601;50.224;10.126;2023-05-07T11:43:26;17.70;96.20
5164;DHT22;2601;50.224;10.126;2023-05-07T11:45:52;17.70;96.00
5164;DHT22;2601;50.224;10.126;2023-05-07T11:48:17;17.70;96.10
5164;DHT22;2601;50.224;10.126;2023-05-07T11:51:00;17.70;96.20
5164;DHT22;2601;50.224;10.126;2023-05-07T11:53:26;17.70;96.20
5164;DHT22;2601;50.224;10.126;2023-05-07T11:55:55;17.70;96.20
5164;DHT22;2601;50.224;10.126;2023-05-07T11:58:22;17.70;96.10
5164;DHT22;2601;50.224;10.126;2023-05-07T12:00:52;17.70;96.10
5164;DHT22;2601;50.224;10.126;2023-05-07T12:03:18;17.70;96.10
5164;DHT22;2601;50.224;10.126;2023-05-07T12:05:45;17.70;96.20
5164;DHT22;2601;50.224;10.126;2023-05-07T12:08:14;17.70;96.30
5164;DHT22;2601;50.224;10.126;2023-05-07T12:10:41;17.70;96.30
5164;DHT22;2601;50.224;10.126;2023-05-07T12:13:17;17.70;96.20
5164;DHT22;2601;50.224;10.126;2023-05-07T12:15:43;17.70;96.00
5164;DHT22;2601;50.224;10.126;2023-05-07T12:18:10;17.80;96.10
5164;DHT22;2601;50.224;10.126;2023-05-07T12:20:36;17.70;95.90
5164;DHT22;2601;50.224;10.126;2023-05-07T12:23:02;17.80;95.90
5164;DHT22;2601;50.224;10.126;2023-05-07T12:25:35;17.80;95.90
5164;DHT22;2601;50.224;10.126;2023-05-07T12:28:05;17.80;95.90
5164;DHT22;2601;50.224;10.126;2023-05-07T12:30:38;17.80;95.90
5164;DHT22;2601;50.224;10.126;2023-05-07T12:33:04;17.80;95.90
5164;DHT22;2601;50.224;10.126;2023-05-07T12:35:30;17.80;95.90
5164;DHT22;2601;50.224;10.126;2023-05-07T12:37:59;17.80;96.00
5164;DHT22;2601;50.224;10.126;2023-05-07T12:40:37;17.80;95.90
5164;DHT22;2601;50.224;10.126;2023-05-07T12:43:03;17.80;95.90
5164;DHT22;2601;50.224;10.126;2023-05-07T12:45:29;17.80;95.90
5164;DHT22;2601;50.224;10.126;2023-05-07T12:47:54;17.80;95.90
5164;DHT22;2601;50.224;10.126;2023-05-07T12:50:20;17.80;96.00
5164;DHT22;2601;50.224;10.126;2023-05-07T12:52:48;17.80;96.00
5164;DHT22;2601;50.224;10.126;2023-05-07T12:55:15;17.80;96.00
5164;DHT22;2601;50.224;10.126;2023-05-07T12:57:43;17.80;96.00
5164;DHT22;2601;50.224;10.126;2023-05-07T13:00:09;17.80;96.00
5164;DHT22;2601;50.224;10.126;2023-05-07T13:02:40;17.80;96.00
5164;DHT22;2601;50.224;10.126;2023-05-07T13:05:06;17.90;96.00
5164;DHT22;2601;50.224;10.126;2023-05-07T13:07:32;17.90;96.00
5164;DHT22;2601;50.224;10.126;2023-05-07T13:09:58;17.90;96.00
5164;DHT22;2601;50.224;10.126;2023-05-07T13:12:23;17.90;96.00
5164;DHT22;2601;50.224;10.126;2023-05-07T13:14:49;17.90;96.00
5164;DHT22;2601;50.224;10.126;2023-05-07T13:17:14;17.90;96.00
5164;DHT22;2601;50.224;10.126;2023-05-07T13:19:40;17.90;96.00
5164;DHT22;2601;50.224;10.126;2023-05-07T13:22:06;17.90;96.00
5164;DHT22;2601;50.224;10.126;2023-05-07T13:24:32;17.90;96.00
5164;DHT22;2601;50.224;10.126;2023-05-07T13:26:59;17.90;96.00
5164;DHT22;2601;50.224;10.126;2023-05-07T13:29:25;17.90;96.00
5164;DHT22;2601;50.224;10.126;2023-05-07T13:31:56;17.90;96.00
5164;DHT22;2601;50.224;10.126;2023-05-07T13:34:22;17.90;96.00
5164;DHT22;2601;50.224;10.126;2023-05-07T13:36:48;17.90;96.00
5164;DHT22;2601;50.224;10.126;2023-05-07T13:39:13;17.90;96.00
5164;DHT22;2601;50.224;10.126;2023-05-07T13:41:39;17.90;96.10
5164;DHT22;2601;50.224;10.126;2023-05-07T13:44:05;17.90;96.10
5164;DHT22;2601;50.224;10.126;2023-05-07T13:46:30;17.90;96.10
5164;DHT22;2601;50.224;10.126;2023-05-07T13:48:56;17.90;96.10
5164;DHT22;2601;50.224;10.126;2023-05-07T13:51:22;17.90;96.10
5164;DHT22;2601;50.224;10.126;2023-05-07T13:53:47;17.90;96.10
5164;DHT22;2601;50.224;10.126;2023-05-07T13:56:14;17.90;96.10
5164;DHT22;2601;50.224;10.126;2023-05-07T13:58:40;17.90;96.10
5164;DHT22;2601;50.224;10.126;2023-05-07T14:01:06;17.90;96.10
5164;DHT22;2601;50.224;10.126;2023-05-07T14:03:31;17.90;96.10
5164;DHT22;2601;50.224;10.126;2023-05-07T14:05:59;17.90;96.20
5164;DHT22;2601;50.224;10.126;2023-05-07T14:08:25;17.90;96.20
5164;DHT22;2601;50.224;10.126;2023-05-07T14:10:51;17.90;96.20
5164;DHT22;2601;50.224;10.126;2023-05-07T14:13:17;17.90;96.30
5164;DHT22;2601;50.224;10.126;2023-05-07T14:15:43;17.90;96.20
5164;DHT22;2601;50.224;10.126;2023-05-07T14:18:12;17.90;96.30
5164;DHT22;2601;50.224;10.126;2023-05-07T14:20:38;17.90;96.30
5164;DHT22;2601;50.224;10.126;2023-05-07T14:23:03;17.90;96.20
5164;DHT22;2601;50.224;10.126;2023-05-07T14:25:29;17.90;96.30
5164;DHT22;2601;50.224;10.126;2023-05-07T14:27:55;17.90;96.30
5164;DHT22;2601;50.224;10.126;2023-05-07T14:30:21;17.90;96.30
5164;DHT22;2601;50.224;10.126;2023-05-07T14:32:47;17.90;96.30
5164;DHT22;2601;50.224;10.126;2023-05-07T14:35:13;17.90;96.30
5164;DHT22;2601;50.224;10.126;2023-05-07T14:37:38;17.90;96.40
5164;DHT22;2601;50.224;10.126;2023-05-07T14:40:05;17.90;96.40
5164;DHT22;2601;50.224;10.126;2023-05-07T14:42:30;17.90;96.40
5164;DHT22;2601;50.224;10.126;2023-05-07T14:44:56;17.90;96.40
5164;DHT22;2601;50.224;10.126;2023-05-07T14:47:21;17.90;96.40
5164;DHT22;2601;50.224;10.126;2023-05-07T14:49:47;17.90;96.30
5164;DHT22;2601;50.224;10.126;2023-05-07T14:52:13;17.90;96.40
5164;DHT22;2601;50.224;10.126;2023-05-07T14:54:38;17.90;96.30
5164;DHT22;2601;50.224;10.126;2023-05-07T14:57:05;17.90;96.30
5164;DHT22;2601;50.224;10.126;2023-05-07T14:59:31;17.90;96.40
5164;DHT22;2601;50.224;10.126;2023-05-07T15:01:57;17.80;96.30
5164;DHT22;2601;50.224;10.126;2023-05-07T15:04:23;17.90;96.40
5164;DHT22;2601;50.224;10.126;2023-05-07T15:06:49;17.90;96.40
5164;DHT22;2601;50.224;10.126;2023-05-07T15:09:15;17.90;96.40
5164;DHT22;2601;50.224;10.126;2023-05-07T15:11:41;17.90;96.40
5164;DHT22;2601;50.224;10.126;2023-05-07T15:14:06;17.90;96.50
5164;DHT22;2601;50.224;10.126;2023-05-07T15:16:32;17.90;96.50
5164;DHT22;2601;50.224;10.126;2023-05-07T15:18:59;17.90;96.40
5164;DHT22;2601;50.224;10.126;2023-05-07T15:21:24;17.90;96.70
5164;DHT22;2601;50.224;10.126;2023-05-07T15:23:52;17.90;96.50
5164;DHT22;2601;50.224;10.126;2023-05-07T15:26:17;17.90;96.50
5164;DHT22;2601;50.224;10.126;2023-05-07T15:28:43;17.90;96.50
5164;DHT22;2601;50.224;10.126;2023-05-07T15:31:08;17.90;96.50
5164;DHT22;2601;50.224;10.126;2023-05-07T15:33:34;17.90;96.50
5164;DHT22;2601;50.224;10.126;2023-05-07T15:36:00;17.90;96.50
5164;DHT22;2601;50.224;10.126;2023-05-07T15:38:26;17.90;96.50
5164;DHT22;2601;50.224;10.126;2023-05-07T15:40:52;17.90;96.50
5164;DHT22;2601;50.224;10.126;2023-05-07T15:43:17;17.90;96.50
5164;DHT22;2601;50.224;10.126;2023-05-07T15:45:43;17.90;96.50
5164;DHT22;2601;50.224;10.126;2023-05-07T15:48:10;17.90;96.50
5164;DHT22;2601;50.224;10.126;2023-05-07T15:50:36;17.90;96.50
5164;DHT22;2601;50.224;10.126;2023-05-07T15:53:03;17.90;96.50
5164;DHT22;2601;50.224;10.126;2023-05-07T15:55:30;17.90;96.50
5164;DHT22;2601;50.224;10.126;2023-05-07T15:57:55;17.90;96.50